Normal, IL

5:58 PM CDT on August 21, 2014 (GMT -0500)
Across From Lincoln College | Change Station
CLOSE
Current Station
Personal Weather Station
Location: Normal, IL
Elevation: 827 ft
Nearby Weather Stations
Active Advisory: Special Statement

Elev 827 ft 40.53 °N, 89.00 °W | Updated 4 seconds ago

Scattered Clouds
Scattered Clouds
84.8 °F
Feels Like 99 °F
N
0.0
Wind Variable Wind from NW
Gusts 21.8 mph

Today
High -- | Low -- °F
--% Chance of Precip.
Yesterday
High -- | Low -- °F
Precip. -- in
6:12 AM 7:44 PM
Waning Crescent, 12% visible
Pressure 29.92 in
Visibility 10.0 miles
Clouds Scattered Clouds 2900 ft
Heat Index 99 °F
Dew Point 79 °F
Humidity 86%
Rainfall 0.54 in
Snow Depth Not available.
UV 3 out of 12
Pollen 8.00 out of 12
Air Quality Not available.
Flu Activity Not available.
METAR KBMI 212156Z 24007KT 10SM SCT029 29/23 A2996 RMK AO2 T02940233 SLP131

More Conditions Fewer Conditions

Pressure 29.92 in
Visibility 10.0 miles
Clouds Scattered Clouds 2900 ft
Heat Index 99 °F
Dew Point 79 °F
Humidity 86%
Rainfall 0.54 in
Snow Depth Not available.
UV 3 out of 12
Pollen 8.00 out of 12
Air Quality Not available.
Flu Activity Not available.
METAR KBMI 212156Z 24007KT 10SM SCT029 29/23 A2996 RMK AO2 T02940233 SLP131

More Conditions Fewer Conditions

10-Day Weather Forecast

Almanac

Astronomy

Aug. 21, 2014 Rise Set
Actual Time 6:12 AM CDT 7:44 PM CDT
Civil Twilight 5:43 AM CDT 8:13 PM CDT
Nautical Twilight 5:08 AM CDT 8:48 PM CDT
Astronomical Twilight 4:32 AM CDT 9:24 PM CDT
Moon 2:42 AM CDT 5:13 PM CDT
Length of Visible Light 14h 29m
Length of Day
13h 32m
Tomorrow will be 2m 27s shorter.
Waning Crescent, 12% of the Moon is Illuminated
Today
Waning Crescent
Aug 25
New
Sep 2
First Quarter
Sep 8
Full
Sep 15
Last Quarter

Today's Extremes

State Highs State Lows

Community

WunderPhotos

Upload Photos

1,746,044 photos uploaded!

WunderBlogs® & News

Nearby

Snow Depth

Station Depth Elevation
No new snow has been reported.

Earthquake Activity

City Distance Mag. Time & Date
No recent earthquake activity has been reported nearby.
Minimum magnitude displayed is 2.5.

Coastal Water Temperatures

Place Temperature
No Stations Reporting

Nearby Weather Stations